createdAt,value
2018-10-18T00:00:28.496Z,40.63
2018-10-18T00:02:58.647Z,40.60
2018-10-18T00:05:27.993Z,40.13
2018-10-18T00:08:00.068Z,40.63
2018-10-18T00:10:29.053Z,40.67
2018-10-18T00:12:58.107Z,39.33
2018-10-18T00:15:27.573Z,39.03
2018-10-18T00:17:56.930Z,40.17
2018-10-18T00:20:25.973Z,40.07
2018-10-18T00:22:55.303Z,40.00
2018-10-18T00:25:24.595Z,41.23
2018-10-18T00:27:53.925Z,39.90
2018-10-18T00:30:23.255Z,39.13
2018-10-18T00:32:52.585Z,39.53
2018-10-18T00:35:21.884Z,41.70
2018-10-18T00:37:50.931Z,40.37
2018-10-18T00:40:20.229Z,39.67
2018-10-18T00:42:49.273Z,40.53
2018-10-18T00:45:18.573Z,41.23
2018-10-18T00:47:47.913Z,40.67
2018-10-18T00:50:17.003Z,42.10
2018-10-18T00:52:46.407Z,41.77
2018-10-18T00:55:15.748Z,41.30
2018-10-18T00:57:46.380Z,39.93
2018-10-18T01:00:15.508Z,42.60
2018-10-18T01:02:44.529Z,40.53
2018-10-18T01:05:13.454Z,40.17
2018-10-18T01:07:42.623Z,41.47
2018-10-18T01:10:11.532Z,42.23
2018-10-18T01:12:40.826Z,41.20
2018-10-18T01:15:09.922Z,41.07
2018-10-18T01:17:39.055Z,40.57
2018-10-18T01:20:12.176Z,44.17
2018-10-18T01:22:41.360Z,40.30
2018-10-18T01:25:10.527Z,43.97
2018-10-18T01:27:39.702Z,40.97
2018-10-18T01:30:08.675Z,40.20
2018-10-18T01:32:37.804Z,40.30
2018-10-18T01:35:07.551Z,40.23
2018-10-18T01:37:36.723Z,39.77
2018-10-18T01:40:05.655Z,39.03
2018-10-18T01:42:34.998Z,38.50
2018-10-18T01:45:03.934Z,39.60
2018-10-18T01:47:33.114Z,38.00
2018-10-18T01:50:02.351Z,39.83
2018-10-18T01:52:31.434Z,37.53
2018-10-18T01:55:00.614Z,39.57
2018-10-18T01:57:29.565Z,38.73
2018-10-18T01:59:58.563Z,40.40
2018-10-18T02:02:27.687Z,39.70
2018-10-18T02:04:57.147Z,40.23
2018-10-18T02:07:26.363Z,41.13
2018-10-18T02:09:55.313Z,39.97
2018-10-18T02:12:24.452Z,40.97
2018-10-18T02:14:53.663Z,41.30
2018-10-18T02:17:22.812Z,42.10
2018-10-18T02:19:51.994Z,43.63
2018-10-18T02:22:21.190Z,43.97
2018-10-18T02:24:50.375Z,42.37
2018-10-18T02:27:19.731Z,40.53
2018-10-18T02:29:48.710Z,42.17
2018-10-18T02:32:17.846Z,40.90
2018-10-18T02:34:47.035Z,41.93
2018-10-18T02:37:16.211Z,39.43
2018-10-18T02:39:45.170Z,39.77
2018-10-18T02:42:14.381Z,38.67
2018-10-18T02:44:43.497Z,41.10
2018-10-18T02:47:12.663Z,41.77
2018-10-18T02:49:41.866Z,40.37
2018-10-18T02:52:11.279Z,39.47
2018-10-18T02:54:40.492Z,40.70
2018-10-18T02:57:09.799Z,40.63
2018-10-18T02:59:38.974Z,39.77
2018-10-18T03:02:08.740Z,40.97
2018-10-18T03:04:37.707Z,39.83
2018-10-18T03:07:07.758Z,43.00
2018-10-18T03:09:37.044Z,39.90
2018-10-18T03:12:06.649Z,38.60
2018-10-18T03:14:35.755Z,42.77
2018-10-18T03:17:05.171Z,39.93
2018-10-18T03:19:34.355Z,41.23
2018-10-18T03:22:03.533Z,41.13
2018-10-18T03:24:32.711Z,39.83
2018-10-18T03:27:01.883Z,38.13
2018-10-18T03:29:30.834Z,38.70
2018-10-18T03:31:59.984Z,39.23
2018-10-18T03:34:29.155Z,39.23
2018-10-18T03:36:58.291Z,38.83
2018-10-18T03:39:27.230Z,38.77
2018-10-18T03:41:56.218Z,39.93
2018-10-18T03:44:25.371Z,40.97
2018-10-18T03:46:54.537Z,39.30
2018-10-18T03:49:23.739Z,39.33
2018-10-18T03:51:52.942Z,41.03
2018-10-18T03:54:21.873Z,39.03
2018-10-18T03:56:51.048Z,40.00
2018-10-18T03:59:20.241Z,41.33
2018-10-18T04:01:49.167Z,41.77
2018-10-18T04:04:18.332Z,40.43
2018-10-18T04:06:47.260Z,39.03
2018-10-18T04:09:16.427Z,40.40
2018-10-18T04:11:45.419Z,39.43
2018-10-18T04:14:14.593Z,40.13
2018-10-18T04:16:43.754Z,36.67
2018-10-18T04:19:12.858Z,37.97
2018-10-18T04:21:42.010Z,39.10
2018-10-18T04:24:11.125Z,39.53
2018-10-18T04:26:40.068Z,37.73
2018-10-18T04:29:09.259Z,38.97
2018-10-18T04:31:38.462Z,39.00
2018-10-18T04:34:07.634Z,38.70
2018-10-18T04:36:36.981Z,36.20
2018-10-18T04:39:09.675Z,38.03
2018-10-18T04:41:38.892Z,38.70
2018-10-18T04:44:08.143Z,38.37
2018-10-18T04:46:37.349Z,37.87
2018-10-18T04:49:06.519Z,37.63
2018-10-18T04:51:35.463Z,39.63
2018-10-18T04:54:04.640Z,37.80
2018-10-18T04:56:33.971Z,38.77
2018-10-18T04:59:03.088Z,38.97
2018-10-18T05:01:32.128Z,36.97
2018-10-18T05:04:01.116Z,39.47
2018-10-18T05:06:30.046Z,38.67
2018-10-18T05:08:58.990Z,39.17
2018-10-18T05:11:28.422Z,39.33
2018-10-18T05:13:57.447Z,39.37
2018-10-18T05:16:26.813Z,37.40
2018-10-18T05:18:56.059Z,37.87
2018-10-18T05:21:25.292Z,36.07
2018-10-18T05:23:54.226Z,40.93
2018-10-18T05:26:23.416Z,42.07
2018-10-18T05:28:52.607Z,40.20
2018-10-18T05:31:21.859Z,38.40
2018-10-18T05:33:50.718Z,36.63
2018-10-18T05:36:19.884Z,37.67
2018-10-18T05:38:49.074Z,38.37
2018-10-18T05:41:18.379Z,40.27
2018-10-18T05:43:47.364Z,38.33
2018-10-18T05:46:16.599Z,37.43
2018-10-18T05:48:45.860Z,38.03
2018-10-18T05:51:15.069Z,37.30
2018-10-18T05:53:44.122Z,39.13
2018-10-18T05:56:13.328Z,37.63
2018-10-18T05:58:42.492Z,37.50
2018-10-18T06:01:11.721Z,38.60
2018-10-18T06:03:40.902Z,39.83
2018-10-18T06:06:10.052Z,38.00
2018-10-18T06:08:39.035Z,36.20
2018-10-18T06:11:31.229Z,36.73
2018-10-18T06:14:00.479Z,36.90
2018-10-18T06:16:29.753Z,41.40
2018-10-18T06:18:58.705Z,48.83
2018-10-18T06:21:28.163Z,45.47
2018-10-18T06:23:57.322Z,40.63
2018-10-18T06:26:26.568Z,35.80
2018-10-18T06:28:56.170Z,37.43
2018-10-18T06:31:25.339Z,36.87
2018-10-18T06:33:54.603Z,35.53
2018-10-18T06:36:23.838Z,36.13
2018-10-18T06:38:52.746Z,37.30
2018-10-18T06:41:21.916Z,34.93
2018-10-18T06:43:51.139Z,35.60
2018-10-18T06:46:20.315Z,35.87
2018-10-18T06:48:49.541Z,45.43
2018-10-18T06:51:18.727Z,38.70
2018-10-18T06:53:47.885Z,37.07
2018-10-18T06:56:17.072Z,38.33
2018-10-18T06:58:46.022Z,41.67
2018-10-18T07:01:14.946Z,37.97
2018-10-18T07:03:44.132Z,41.50
2018-10-18T07:06:13.813Z,40.37
2018-10-18T07:08:42.671Z,38.23
2018-10-18T07:11:11.624Z,38.53
2018-10-18T07:13:44.888Z,44.33
2018-10-18T07:16:14.072Z,44.57
2018-10-18T07:18:43.371Z,41.07
2018-10-18T07:21:12.527Z,41.23
2018-10-18T07:23:41.731Z,40.00
2018-10-18T07:26:10.675Z,39.93
2018-10-18T07:28:39.976Z,39.60
2018-10-18T07:31:09.219Z,40.43
2018-10-18T07:33:38.427Z,42.50
2018-10-18T07:36:07.410Z,38.73
2018-10-18T07:38:36.342Z,39.03
2018-10-18T07:41:05.378Z,39.77
2018-10-18T07:43:34.580Z,39.63
2018-10-18T07:46:03.890Z,43.70
2018-10-18T07:48:33.117Z,41.70
2018-10-18T07:51:02.099Z,39.13
2018-10-18T07:53:31.388Z,46.63
2018-10-18T07:56:00.536Z,51.93
2018-10-18T07:58:29.752Z,42.93
2018-10-18T08:00:58.706Z,38.77
2018-10-18T08:03:27.883Z,37.73
2018-10-18T08:05:57.107Z,38.67
2018-10-18T08:08:26.307Z,40.30
2018-10-18T08:10:55.561Z,38.33
2018-10-18T08:13:24.736Z,42.13
2018-10-18T08:15:53.927Z,40.33
2018-10-18T08:18:23.308Z,40.63
2018-10-18T08:20:52.550Z,40.30
2018-10-18T08:23:21.506Z,41.93
2018-10-18T08:25:50.701Z,40.97
2018-10-18T08:28:19.951Z,40.47
2018-10-18T08:30:53.094Z,43.77
2018-10-18T08:33:24.296Z,48.07
2018-10-18T08:35:53.413Z,42.77
2018-10-18T08:38:23.259Z,43.93
2018-10-18T08:40:52.573Z,44.77
2018-10-18T08:43:22.185Z,47.30
2018-10-18T08:45:51.494Z,47.87
2018-10-18T08:48:20.770Z,46.67
2018-10-18T08:50:50.213Z,47.10
2018-10-18T08:53:19.411Z,48.70
2018-10-18T08:55:48.907Z,49.93
2018-10-18T08:58:18.231Z,48.30
2018-10-18T09:00:47.404Z,46.87
2018-10-18T09:03:16.565Z,50.33
2018-10-18T09:05:45.796Z,48.00
2018-10-18T09:08:15.223Z,51.37
2018-10-18T09:10:44.500Z,47.30
2018-10-18T09:13:13.516Z,45.83
2018-10-18T09:15:42.695Z,49.97
2018-10-18T09:18:11.868Z,50.30
2018-10-18T09:20:47.709Z,57.10
2018-10-18T09:23:16.906Z,48.23
2018-10-18T09:25:45.887Z,54.23
2018-10-18T09:28:15.184Z,50.90
2018-10-18T09:30:44.371Z,54.97
2018-10-18T09:33:13.556Z,58.30
2018-10-18T09:35:42.714Z,55.87
2018-10-18T09:38:11.927Z,59.17
2018-10-18T09:40:40.890Z,69.40
2018-10-18T09:43:09.908Z,63.93
2018-10-18T09:45:39.091Z,55.10
2018-10-18T09:48:08.280Z,60.90
2018-10-18T09:50:37.288Z,55.70
2018-10-18T09:53:06.841Z,53.27
2018-10-18T09:55:36.095Z,56.83
2018-10-18T09:58:05.437Z,58.67
2018-10-18T10:01:42.701Z,53.67
2018-10-18T10:04:12.021Z,51.33
2018-10-18T10:06:41.012Z,59.97
2018-10-18T10:09:10.062Z,60.57
2018-10-18T10:11:39.253Z,56.73
2018-10-18T10:14:08.342Z,58.57
2018-10-18T10:16:44.245Z,59.63
2018-10-18T10:19:13.508Z,54.13
2018-10-18T10:21:42.616Z,53.50
2018-10-18T10:24:11.870Z,57.00
2018-10-18T10:26:41.099Z,56.33
2018-10-18T10:29:10.323Z,61.10
2018-10-18T10:31:39.575Z,56.33
2018-10-18T10:34:08.860Z,61.50
2018-10-18T10:36:38.208Z,62.07
2018-10-18T10:39:08.752Z,60.30
2018-10-18T10:41:37.998Z,61.23
2018-10-18T10:44:09.252Z,61.10
2018-10-18T10:46:40.364Z,60.07
2018-10-18T10:49:09.938Z,60.80
2018-10-18T10:51:38.790Z,58.70
2018-10-18T10:54:08.899Z,57.77
2018-10-18T10:56:38.115Z,56.00
2018-10-18T10:59:14.975Z,56.53
2018-10-18T11:01:44.151Z,56.97
2018-10-18T11:04:13.317Z,52.80
2018-10-18T11:06:42.487Z,52.97
2018-10-18T11:09:12.228Z,55.93
2018-10-18T11:11:41.206Z,55.60
2018-10-18T11:14:10.438Z,57.30
2018-10-18T11:16:39.287Z,54.73
2018-10-18T11:19:08.515Z,54.37
2018-10-18T11:21:37.478Z,57.23
2018-10-18T11:24:06.767Z,56.10
2018-10-18T11:26:36.097Z,58.10
2018-10-18T11:29:05.666Z,58.30
2018-10-18T11:31:35.036Z,51.83
2018-10-18T11:34:04.505Z,55.00
2018-10-18T11:36:33.436Z,54.10
2018-10-18T11:39:02.348Z,53.90
2018-10-18T11:41:31.552Z,54.73
2018-10-18T11:44:00.755Z,57.00
2018-10-18T11:46:29.902Z,58.83
2018-10-18T11:48:59.124Z,59.83
2018-10-18T11:51:28.211Z,57.10
2018-10-18T11:53:57.410Z,53.40
2018-10-18T11:56:26.646Z,54.53
2018-10-18T11:58:55.863Z,52.60
2018-10-18T12:01:25.453Z,55.40
2018-10-18T12:03:54.405Z,50.97
2018-10-18T12:06:23.607Z,50.23
2018-10-18T12:08:52.619Z,47.30
2018-10-18T12:11:21.794Z,44.07
2018-10-18T12:13:50.714Z,43.47
2018-10-18T12:16:19.915Z,43.40
2018-10-18T12:18:49.066Z,43.20
2018-10-18T12:21:18.244Z,38.20
2018-10-18T12:23:47.190Z,39.20
2018-10-18T12:26:16.226Z,36.03
2018-10-18T12:28:45.363Z,33.20
2018-10-18T12:31:14.353Z,31.03
2018-10-18T12:33:43.514Z,31.00
2018-10-18T12:36:12.788Z,30.87
2018-10-18T12:38:42.003Z,29.97
2018-10-18T12:41:11.396Z,30.13
2018-10-18T12:43:40.764Z,26.97
2018-10-18T12:46:09.958Z,28.50
2018-10-18T12:48:39.172Z,28.90
2018-10-18T12:51:08.339Z,27.57
2018-10-18T12:53:37.522Z,27.07
2018-10-18T12:56:07.040Z,26.87
2018-10-18T12:58:36.363Z,26.33
2018-10-18T13:01:05.604Z,28.10
2018-10-18T13:03:34.569Z,28.30
2018-10-18T13:06:03.780Z,29.10
2018-10-18T13:08:32.764Z,27.80
2018-10-18T13:11:01.944Z,27.37
2018-10-18T13:13:31.179Z,28.63
2018-10-18T13:16:00.383Z,27.23
2018-10-18T13:18:29.595Z,26.60
2018-10-18T13:20:58.803Z,25.20
2018-10-18T13:23:28.142Z,25.53
2018-10-18T13:25:57.426Z,26.27
2018-10-18T13:28:33.369Z,27.47
2018-10-18T13:31:02.282Z,28.97
2018-10-18T13:33:31.462Z,28.00
2018-10-18T13:36:00.911Z,26.57
2018-10-18T13:38:30.107Z,28.87
2018-10-18T13:40:59.015Z,28.73
2018-10-18T13:43:28.284Z,27.67
2018-10-18T13:45:57.523Z,27.90
2018-10-18T13:48:26.692Z,28.17
2018-10-18T13:50:55.868Z,31.07
2018-10-18T13:53:24.798Z,29.73
2018-10-18T13:55:54.064Z,31.30
2018-10-18T13:58:23.352Z,29.73
2018-10-18T14:00:52.738Z,33.00
2018-10-18T14:03:21.725Z,29.27
2018-10-18T14:05:50.969Z,30.77
2018-10-18T14:08:20.005Z,33.30
2018-10-18T14:10:49.088Z,30.70
2018-10-18T14:13:18.200Z,29.77
2018-10-18T14:15:47.147Z,28.13
2018-10-18T14:18:16.142Z,30.93
2018-10-18T14:20:45.382Z,32.97
2018-10-18T14:23:14.844Z,31.47
2018-10-18T14:25:43.790Z,29.23
2018-10-18T14:28:13.046Z,31.37
2018-10-18T14:30:42.437Z,30.93
2018-10-18T14:33:11.631Z,30.13
2018-10-18T14:35:40.806Z,31.23
2018-10-18T14:38:10.193Z,32.20
2018-10-18T14:40:39.100Z,31.83
2018-10-18T14:43:08.343Z,30.87
2018-10-18T14:45:37.312Z,31.37
2018-10-18T14:48:06.255Z,30.03
2018-10-18T14:50:35.681Z,31.37
2018-10-18T14:53:04.838Z,32.37
2018-10-18T14:55:34.754Z,33.10
2018-10-18T14:58:04.044Z,29.67
2018-10-18T15:00:33.219Z,32.63
2018-10-18T15:03:02.465Z,36.10
2018-10-18T15:05:31.683Z,35.03
2018-10-18T15:08:01.009Z,32.93
2018-10-18T15:10:30.155Z,31.67
2018-10-18T15:12:59.342Z,29.37
2018-10-18T15:15:28.546Z,32.07
2018-10-18T15:17:57.672Z,31.47
2018-10-18T15:20:26.955Z,29.70
2018-10-18T15:22:55.924Z,30.30
2018-10-18T15:25:25.365Z,30.63
2018-10-18T15:27:54.240Z,28.80
2018-10-18T15:30:23.470Z,28.67
2018-10-18T15:32:52.447Z,29.83
2018-10-18T15:35:21.884Z,31.50
2018-10-18T15:37:50.871Z,29.80
2018-10-18T15:40:20.020Z,32.77
2018-10-18T15:42:48.963Z,30.13
2018-10-18T15:45:18.004Z,28.60
2018-10-18T15:47:47.132Z,29.20
2018-10-18T15:50:16.282Z,30.27
2018-10-18T15:52:45.470Z,27.80
2018-10-18T15:55:14.681Z,28.33
2018-10-18T15:57:43.912Z,27.57
2018-10-18T16:00:13.159Z,30.33
2018-10-18T16:02:42.603Z,31.70
2018-10-18T16:05:13.381Z,30.43
2018-10-18T16:07:42.601Z,28.37
2018-10-18T16:10:42.613Z,29.23
2018-10-18T16:13:11.642Z,27.73
2018-10-18T16:15:40.574Z,29.70
2018-10-18T16:18:09.794Z,26.30
2018-10-18T16:20:38.818Z,26.70
2018-10-18T16:23:08.092Z,26.10
2018-10-18T16:25:37.432Z,27.70
2018-10-18T16:28:06.375Z,28.53
2018-10-18T16:30:35.584Z,24.80
2018-10-18T16:33:04.952Z,26.37
2018-10-18T16:35:34.329Z,25.37
2018-10-18T16:38:03.355Z,25.20
2018-10-18T16:40:32.893Z,24.63
2018-10-18T16:43:01.988Z,26.57
2018-10-18T16:45:31.391Z,26.37
2018-10-18T16:48:00.691Z,24.87
2018-10-18T16:50:30.075Z,25.93
2018-10-18T16:52:59.284Z,27.17
2018-10-18T16:55:28.484Z,24.23
2018-10-18T16:57:57.927Z,24.90
2018-10-18T17:00:26.856Z,27.13
2018-10-18T17:02:56.079Z,28.23
2018-10-18T17:05:25.238Z,24.67
2018-10-18T17:07:54.588Z,24.13
2018-10-18T17:10:23.583Z,22.73
2018-10-18T17:12:52.779Z,23.67
2018-10-18T17:15:21.976Z,23.80
2018-10-18T17:17:51.182Z,25.50
2018-10-18T17:20:20.500Z,24.93
2018-10-18T17:22:49.608Z,22.63
2018-10-18T17:25:18.834Z,23.60
2018-10-18T17:27:48.141Z,23.50
2018-10-18T17:30:17.094Z,22.00
2018-10-18T17:32:46.431Z,24.13
2018-10-18T17:35:15.630Z,24.07
2018-10-18T17:37:44.839Z,22.00
2018-10-18T17:40:14.124Z,24.73
2018-10-18T17:42:43.039Z,24.63
2018-10-18T17:45:13.025Z,25.30
2018-10-18T17:47:43.073Z,23.13
2018-10-18T17:50:12.651Z,23.80
2018-10-18T17:52:42.096Z,23.17
2018-10-18T17:55:11.319Z,24.07
2018-10-18T17:57:40.691Z,23.30
2018-10-18T18:00:12.379Z,23.40
2018-10-18T18:02:41.703Z,22.60
2018-10-18T18:05:12.035Z,23.27
2018-10-18T18:07:41.196Z,22.63
2018-10-18T18:10:13.884Z,25.40
2018-10-18T18:12:43.048Z,23.40
2018-10-18T18:15:12.180Z,25.43
2018-10-18T18:17:41.413Z,23.80
2018-10-18T18:20:12.031Z,24.87
2018-10-18T18:22:41.299Z,22.80
2018-10-18T18:25:11.652Z,22.53
2018-10-18T18:27:40.931Z,21.57
2018-10-18T18:30:12.331Z,20.00
2018-10-18T18:32:41.927Z,20.67
2018-10-18T18:35:10.835Z,22.97
2018-10-18T18:37:40.023Z,20.53
2018-10-18T18:40:09.566Z,20.07
2018-10-18T18:42:39.511Z,20.17
2018-10-18T18:45:14.093Z,24.37
2018-10-18T18:47:43.155Z,23.40
2018-10-18T18:50:12.320Z,20.10
2018-10-18T18:52:41.467Z,28.03
2018-10-18T18:55:10.990Z,20.87
2018-10-18T18:57:40.183Z,18.93
2018-10-18T19:00:10.086Z,19.33
2018-10-18T19:02:39.315Z,17.83
2018-10-18T19:05:09.230Z,18.73
2018-10-18T19:07:38.451Z,18.90
2018-10-18T19:10:07.836Z,18.47
2018-10-18T19:12:37.071Z,19.07
2018-10-18T19:15:08.111Z,17.33
2018-10-18T19:17:38.162Z,17.77
2018-10-18T19:20:07.387Z,17.60
2018-10-18T19:22:36.760Z,17.50
2018-10-18T19:25:07.182Z,19.30
2018-10-18T19:27:36.736Z,16.23
2018-10-18T19:30:08.086Z,17.27
2018-10-18T19:32:37.261Z,17.03
2018-10-18T19:35:06.711Z,16.20
2018-10-18T19:37:36.065Z,16.50
2018-10-18T19:40:06.713Z,15.73
2018-10-18T19:42:35.960Z,16.60
2018-10-18T19:45:06.219Z,17.07
2018-10-18T19:47:35.443Z,18.10
2018-10-18T19:50:05.283Z,17.77
2018-10-18T19:52:34.841Z,16.87
2018-10-18T19:55:03.955Z,16.03
2018-10-18T19:57:33.167Z,15.23
2018-10-18T20:00:02.319Z,16.90
2018-10-18T20:02:31.282Z,19.87
2018-10-18T20:05:00.476Z,14.30
2018-10-18T20:07:29.670Z,14.37
2018-10-18T20:09:58.660Z,13.80
2018-10-18T20:12:27.970Z,13.80
2018-10-18T20:14:57.268Z,14.13
2018-10-18T20:17:26.565Z,13.53
2018-10-18T20:19:55.777Z,12.77
2018-10-18T20:22:25.456Z,12.27
2018-10-18T20:24:54.734Z,13.50
2018-10-18T20:27:23.707Z,11.40
2018-10-18T20:29:52.752Z,12.90
2018-10-18T20:32:21.741Z,12.33
2018-10-18T20:34:50.788Z,12.13
2018-10-18T20:37:20.081Z,13.33
2018-10-18T20:39:49.284Z,13.33
2018-10-18T20:42:18.282Z,12.83
2018-10-18T20:44:47.459Z,12.50
2018-10-18T20:47:16.853Z,12.70
2018-10-18T20:49:45.957Z,12.43
2018-10-18T20:52:15.388Z,12.20
2018-10-18T20:54:44.567Z,12.97
2018-10-18T20:57:13.968Z,13.43
2018-10-18T20:59:43.084Z,11.73
2018-10-18T21:02:12.288Z,12.77
2018-10-18T21:04:41.488Z,12.63
2018-10-18T21:07:10.435Z,13.33
2018-10-18T21:09:39.467Z,12.43
2018-10-18T21:12:08.671Z,12.27
2018-10-18T21:14:37.710Z,12.50
2018-10-18T21:17:07.036Z,12.93
2018-10-18T21:19:36.211Z,13.70
2018-10-18T21:22:06.101Z,12.97
2018-10-18T21:24:35.291Z,13.43
2018-10-18T21:27:04.546Z,12.30
2018-10-18T21:29:33.699Z,13.43
2018-10-18T21:32:02.622Z,13.30
2018-10-18T21:34:31.855Z,12.67
2018-10-18T21:37:00.856Z,13.80
2018-10-18T21:39:33.586Z,13.80
2018-10-18T21:42:03.094Z,13.70
2018-10-18T21:44:33.542Z,13.80
2018-10-18T21:47:02.817Z,14.93
2018-10-18T21:49:32.242Z,14.40
2018-10-18T21:52:01.401Z,14.63
2018-10-18T21:54:30.590Z,14.33
2018-10-18T21:56:59.603Z,14.80
2018-10-18T21:59:28.607Z,14.30
2018-10-18T22:01:57.829Z,15.40
2018-10-18T22:04:26.758Z,13.47
2018-10-18T22:06:56.288Z,14.40
2018-10-18T22:09:25.323Z,15.20
2018-10-18T22:11:54.516Z,15.53
2018-10-18T22:14:23.532Z,15.33
2018-10-18T22:16:53.309Z,14.60
2018-10-18T22:19:22.526Z,14.37
2018-10-18T22:21:51.461Z,16.13
2018-10-18T22:24:20.628Z,14.90
2018-10-18T22:26:49.859Z,15.40
2018-10-18T22:29:19.050Z,15.30
2018-10-18T22:31:48.219Z,16.57
2018-10-18T22:34:17.407Z,13.93
2018-10-18T22:36:46.576Z,14.30
2018-10-18T22:39:15.503Z,14.13
2018-10-18T22:41:45.123Z,14.50
2018-10-18T22:44:14.061Z,15.17
2018-10-18T22:46:43.223Z,14.47
2018-10-18T22:49:12.390Z,14.60
2018-10-18T22:51:41.567Z,14.27
2018-10-18T22:54:10.735Z,14.63
2018-10-18T22:56:39.937Z,15.10
2018-10-18T22:59:09.256Z,14.13
2018-10-18T23:01:38.334Z,14.67
2018-10-18T23:04:07.271Z,14.57
2018-10-18T23:06:36.449Z,15.90
2018-10-18T23:09:09.163Z,14.73
2018-10-18T23:11:38.356Z,14.23
2018-10-18T23:14:07.960Z,14.17
2018-10-18T23:16:37.651Z,13.63
2018-10-18T23:19:09.525Z,15.00
2018-10-18T23:21:38.744Z,14.57
2018-10-18T23:24:08.060Z,14.63
2018-10-18T23:26:37.240Z,14.93
2018-10-18T23:29:06.550Z,15.57
2018-10-18T23:31:35.736Z,14.20
2018-10-18T23:34:05.091Z,15.27
2018-10-18T23:36:34.276Z,14.73
2018-10-18T23:39:04.331Z,13.23
2018-10-18T23:41:33.219Z,14.80
2018-10-18T23:44:02.431Z,14.93
2018-10-18T23:46:31.594Z,13.97
2018-10-18T23:49:00.810Z,13.97
2018-10-18T23:51:30.009Z,14.17
2018-10-18T23:53:59.263Z,13.37
2018-10-18T23:56:28.523Z,15.13
2018-10-18T23:58:57.750Z,14.43
